createdAt,value
2019-02-17T00:01:44.863Z,82.40
2019-02-17T00:04:14.149Z,81.78
2019-02-17T00:06:43.076Z,87.77
2019-02-17T00:09:14.330Z,84.07
2019-02-17T00:11:43.278Z,81.05
2019-02-17T00:14:16.573Z,78.37
2019-02-17T00:16:45.546Z,83.22
2019-02-17T00:19:15.492Z,86.50
2019-02-17T00:21:44.446Z,78.20
2019-02-17T00:24:16.206Z,82.37
2019-02-17T00:26:46.207Z,78.87
2019-02-17T00:29:15.469Z,85.97
2019-02-17T00:31:44.398Z,83.27
2019-02-17T00:34:13.844Z,85.72
2019-02-17T00:36:44.710Z,84.20
2019-02-17T00:39:17.970Z,77.90
2019-02-17T00:41:47.148Z,73.12
2019-02-17T00:44:16.106Z,83.52
2019-02-17T00:46:45.083Z,75.32
2019-02-17T00:49:14.514Z,85.57
2019-02-17T00:51:43.834Z,79.80
2019-02-17T00:54:13.036Z,83.72
2019-02-17T00:56:42.066Z,80.95
2019-02-17T00:59:11.036Z,78.28
2019-02-17T01:01:40.128Z,79.17
2019-02-17T01:04:09.162Z,83.12
2019-02-17T01:06:38.132Z,75.92
2019-02-17T01:09:10.448Z,79.50
2019-02-17T01:11:39.522Z,81.02
2019-02-17T01:14:08.545Z,83.58
2019-02-17T01:16:40.335Z,83.35
2019-02-17T01:19:09.375Z,84.37
2019-02-17T01:21:38.417Z,80.90
2019-02-17T01:26:36.708Z,83.27
2019-02-17T01:29:05.696Z,83.25
2019-02-17T01:31:34.680Z,81.92
2019-02-17T01:34:07.196Z,87.65
2019-02-17T01:36:40.089Z,83.30
2019-02-17T01:39:14.823Z,78.07
2019-02-17T01:41:43.753Z,82.65
2019-02-17T01:44:14.038Z,84.92
2019-02-17T01:46:48.121Z,79.35
2019-02-17T01:49:17.089Z,83.62
2019-02-17T01:51:46.081Z,81.92
2019-02-17T01:54:15.295Z,77.00
2019-02-17T01:56:44.270Z,78.63
2019-02-17T01:59:13.238Z,81.78
2019-02-17T02:01:44.475Z,76.65
2019-02-17T02:04:13.444Z,79.67
2019-02-17T02:06:42.422Z,81.75
2019-02-17T02:09:11.393Z,82.90
2019-02-17T02:11:41.972Z,87.70
2019-02-17T02:14:10.948Z,83.37
2019-02-17T02:16:41.398Z,82.30
2019-02-17T02:19:13.527Z,84.03
2019-02-17T02:21:43.023Z,86.65
2019-02-17T02:24:11.989Z,88.12
2019-02-17T02:26:41.035Z,83.45
2019-02-17T02:29:11.657Z,83.33
2019-02-17T02:31:42.692Z,86.12
2019-02-17T02:34:11.677Z,86.25
2019-02-17T02:36:40.946Z,78.00
2019-02-17T02:39:09.882Z,78.97
2019-02-17T02:41:38.878Z,82.37
2019-02-17T02:44:12.248Z,82.47
2019-02-17T02:46:40.926Z,79.20
2019-02-17T02:49:15.103Z,83.80
2019-02-17T02:51:44.077Z,80.45
2019-02-17T02:54:13.036Z,83.65
2019-02-17T02:56:42.851Z,83.07
2019-02-17T02:59:14.208Z,82.05
2019-02-17T03:01:43.177Z,80.07
2019-02-17T03:04:15.149Z,81.37
2019-02-17T03:06:45.727Z,79.43
2019-02-17T03:09:14.707Z,82.62
2019-02-17T03:11:46.380Z,77.30
2019-02-17T03:14:15.423Z,85.57
2019-02-17T03:16:49.143Z,78.50
2019-02-17T03:19:17.237Z,79.53
2019-02-17T03:21:46.260Z,81.12
2019-02-17T03:24:20.265Z,87.45
2019-02-17T03:26:52.061Z,82.05
2019-02-17T03:29:21.276Z,76.70
2019-02-17T03:31:50.260Z,86.20
2019-02-17T03:34:20.848Z,77.17
2019-02-17T03:36:51.020Z,82.62
2019-02-17T03:41:50.895Z,81.28
2019-02-17T03:44:21.507Z,84.28
2019-02-17T03:46:50.745Z,86.55
2019-02-17T03:49:19.677Z,88.10
2019-02-17T03:51:48.662Z,81.70
2019-02-17T03:54:17.686Z,84.00
2019-02-17T03:56:48.767Z,80.67
2019-02-17T03:59:17.806Z,83.12
2019-02-17T04:01:49.427Z,77.67
2019-02-17T04:04:18.411Z,79.97
2019-02-17T04:06:47.424Z,80.38
2019-02-17T04:09:16.410Z,80.75
2019-02-17T04:11:48.057Z,82.95
2019-02-17T04:14:16.162Z,78.25
2019-02-17T04:16:45.207Z,76.55
2019-02-17T04:19:14.330Z,76.00
2019-02-17T04:21:43.357Z,77.47
2019-02-17T04:24:12.394Z,73.37
2019-02-17T04:26:41.370Z,79.05
2019-02-17T04:29:10.442Z,77.00
2019-02-17T04:31:41.089Z,74.85
2019-02-17T04:34:10.110Z,75.60
2019-02-17T04:36:39.098Z,77.32
2019-02-17T04:39:08.194Z,79.45
2019-02-17T04:41:37.167Z,73.07
2019-02-17T04:44:06.143Z,72.70
2019-02-17T04:46:38.011Z,75.78
2019-02-17T04:49:07.119Z,73.55
2019-02-17T04:51:42.411Z,75.95
2019-02-17T04:54:13.210Z,76.45
2019-02-17T04:56:42.179Z,78.85
2019-02-17T04:59:11.156Z,76.10
2019-02-17T05:01:40.142Z,72.37
2019-02-17T05:04:10.042Z,80.00
2019-02-17T05:06:40.808Z,73.07
2019-02-17T05:09:15.780Z,72.65
2019-02-17T05:11:49.301Z,69.30
2019-02-17T05:14:18.330Z,69.90
2019-02-17T05:16:53.273Z,77.17
2019-02-17T05:19:21.096Z,77.70
2019-02-17T05:21:50.411Z,74.00
2019-02-17T05:24:19.374Z,76.95
2019-02-17T05:26:52.261Z,74.90
2019-02-17T05:29:21.328Z,75.90
2019-02-17T05:31:50.301Z,72.70
2019-02-17T05:34:20.917Z,73.52
2019-02-17T05:36:49.927Z,79.65
2019-02-17T05:39:24.941Z,76.75
2019-02-17T05:41:54.049Z,77.27
2019-02-17T05:44:23.132Z,78.28
2019-02-17T05:46:52.133Z,76.80
2019-02-17T05:49:21.103Z,87.10
2019-02-17T05:51:50.108Z,77.55
2019-02-17T05:54:19.119Z,75.45
2019-02-17T05:56:48.259Z,79.17
2019-02-17T05:59:17.252Z,75.75
2019-02-17T06:01:49.037Z,68.47
2019-02-17T06:04:18.099Z,83.05
2019-02-17T06:06:47.093Z,77.27
2019-02-17T06:09:22.432Z,73.78
2019-02-17T06:11:51.422Z,72.37
2019-02-17T06:14:20.382Z,70.55
2019-02-17T06:16:49.471Z,72.92
2019-02-17T06:19:20.000Z,74.37
2019-02-17T06:21:51.227Z,78.00
2019-02-17T06:24:20.238Z,75.22
2019-02-17T06:26:49.242Z,78.52
2019-02-17T06:29:18.298Z,75.95
2019-02-17T06:31:47.341Z,69.70
2019-02-17T06:34:16.322Z,77.60
2019-02-17T06:36:45.309Z,74.53
2019-02-17T06:39:20.852Z,76.42
2019-02-17T06:41:51.508Z,74.70
2019-02-17T06:44:20.490Z,71.90
2019-02-17T06:46:51.098Z,76.37
2019-02-17T06:49:20.102Z,79.50
2019-02-17T06:51:49.982Z,70.60
2019-02-17T06:54:18.963Z,79.00
2019-02-17T06:56:49.632Z,79.20
2019-02-17T06:59:18.612Z,80.67
2019-02-17T07:01:47.592Z,79.15
2019-02-17T07:04:16.589Z,74.27
2019-02-17T07:06:47.282Z,81.72
2019-02-17T07:09:16.286Z,74.30
2019-02-17T07:11:46.785Z,77.03
2019-02-17T07:14:15.815Z,67.90
2019-02-17T07:16:44.827Z,83.30
2019-02-17T07:19:13.801Z,74.85
2019-02-17T07:21:42.811Z,74.07
2019-02-17T07:24:11.859Z,79.10
2019-02-17T07:26:40.873Z,71.62
2019-02-17T07:29:11.485Z,74.22
2019-02-17T07:31:41.025Z,72.80
2019-02-17T07:34:13.575Z,75.05
2019-02-17T07:36:42.574Z,71.95
2019-02-17T07:39:13.205Z,77.08
2019-02-17T07:41:42.315Z,73.37
2019-02-17T07:44:11.332Z,69.23
2019-02-17T07:46:40.307Z,69.95
2019-02-17T07:49:11.932Z,68.87
2019-02-17T07:51:40.971Z,65.35
2019-02-17T07:54:11.622Z,73.28
2019-02-17T07:56:40.691Z,65.67
2019-02-17T07:59:09.744Z,68.17
2019-02-17T08:01:45.315Z,69.27
2019-02-17T08:04:09.428Z,67.45
2019-02-17T08:06:40.206Z,67.20
2019-02-17T08:09:09.253Z,69.55
2019-02-17T08:11:38.245Z,62.58
2019-02-17T08:14:07.239Z,61.40
2019-02-17T08:16:36.222Z,62.88
2019-02-17T08:19:05.193Z,67.08
2019-02-17T08:21:35.790Z,67.50
2019-02-17T08:24:04.762Z,62.65
2019-02-17T08:26:33.753Z,61.45
2019-02-17T08:29:02.718Z,60.52
2019-02-17T08:34:02.592Z,60.65
2019-02-17T08:36:31.582Z,57.88
2019-02-17T08:39:00.556Z,62.50
2019-02-17T08:41:31.328Z,61.80
2019-02-17T08:44:00.964Z,59.63
2019-02-17T08:46:31.184Z,59.50
2019-02-17T08:49:00.150Z,59.67
2019-02-17T08:51:29.136Z,55.88
2019-02-17T08:53:58.145Z,64.50
2019-02-17T08:56:27.119Z,57.80
2019-02-17T08:58:59.036Z,57.43
2019-02-17T09:01:29.827Z,59.30
2019-02-17T09:03:58.851Z,60.28
2019-02-17T09:06:29.473Z,54.88
2019-02-17T09:09:00.084Z,55.35
2019-02-17T09:11:29.059Z,56.02
2019-02-17T09:13:58.139Z,59.42
2019-02-17T09:16:27.598Z,54.35
2019-02-17T09:18:56.661Z,53.78
2019-02-17T09:21:25.625Z,51.98
2019-02-17T09:23:54.611Z,53.63
2019-02-17T09:26:23.587Z,55.55
2019-02-17T09:28:52.575Z,51.45
2019-02-17T09:31:21.569Z,54.85
2019-02-17T09:33:50.562Z,52.40
2019-02-17T09:36:27.633Z,50.23
2019-02-17T09:38:56.891Z,51.88
2019-02-17T09:41:25.832Z,48.60
2019-02-17T09:43:54.813Z,51.88
2019-02-17T09:48:53.011Z,45.88
2019-02-17T09:51:21.995Z,46.42
2019-02-17T09:53:57.277Z,52.30
2019-02-17T09:56:26.267Z,50.60
2019-02-17T09:58:55.241Z,45.90
2019-02-17T10:01:24.222Z,48.50
2019-02-17T10:03:53.194Z,46.25
2019-02-17T10:06:22.185Z,42.62
2019-02-17T10:08:51.197Z,44.65
2019-02-17T10:11:20.207Z,48.68
2019-02-17T10:13:49.253Z,48.48
2019-02-17T10:16:18.247Z,45.38
2019-02-17T10:18:47.215Z,45.40
2019-02-17T10:21:18.807Z,47.00
2019-02-17T10:23:49.354Z,44.60
2019-02-17T10:26:18.083Z,46.15
2019-02-17T10:28:47.066Z,45.38
2019-02-17T10:31:16.033Z,43.63
2019-02-17T10:33:45.066Z,43.87
2019-02-17T10:36:14.095Z,46.13
2019-02-17T10:38:44.613Z,47.20
2019-02-17T10:41:13.604Z,48.13
2019-02-17T10:43:46.384Z,43.15
2019-02-17T10:46:15.415Z,48.28
2019-02-17T10:48:45.940Z,44.42
2019-02-17T10:51:14.898Z,44.95
2019-02-17T10:53:46.442Z,45.78
2019-02-17T10:56:20.688Z,46.70
2019-02-17T10:58:49.032Z,46.05
2019-02-17T11:01:17.991Z,43.90
2019-02-17T11:04:00.488Z,45.63
2019-02-17T11:06:31.316Z,46.13
2019-02-17T11:09:18.428Z,45.83
2019-02-17T11:11:47.668Z,45.67
2019-02-17T11:14:17.123Z,45.00
2019-02-17T11:16:46.088Z,45.70
2019-02-17T11:19:15.082Z,49.13
2019-02-17T11:21:47.350Z,47.10
2019-02-17T11:24:16.395Z,48.33
2019-02-17T11:26:46.039Z,49.70
2019-02-17T11:29:16.702Z,47.67
2019-02-17T11:31:45.805Z,47.73
2019-02-17T11:34:19.592Z,46.18
2019-02-17T11:36:48.560Z,44.23
2019-02-17T11:39:18.418Z,47.73
2019-02-17T11:41:47.418Z,42.35
2019-02-17T11:44:16.554Z,48.33
2019-02-17T11:46:45.568Z,51.88
2019-02-17T11:49:14.550Z,49.83
2019-02-17T11:51:44.141Z,49.38
2019-02-17T11:54:13.082Z,47.87
2019-02-17T11:56:42.070Z,47.53
2019-02-17T11:59:13.139Z,46.18
2019-02-17T12:01:42.202Z,52.27
2019-02-17T12:04:11.187Z,45.43
2019-02-17T12:06:45.315Z,48.17
2019-02-17T12:09:14.367Z,44.42
2019-02-17T12:11:44.975Z,45.88
2019-02-17T12:14:13.987Z,49.88
2019-02-17T12:16:45.939Z,46.70
2019-02-17T12:19:17.745Z,48.02
2019-02-17T12:21:48.429Z,47.30
2019-02-17T12:24:22.975Z,49.27
2019-02-17T12:27:08.905Z,46.25
2019-02-17T12:29:41.137Z,47.38
2019-02-17T12:32:10.179Z,43.85
2019-02-17T12:34:40.595Z,49.13
2019-02-17T12:37:12.245Z,48.33
2019-02-17T12:39:41.720Z,45.50
2019-02-17T12:42:10.789Z,48.42
2019-02-17T12:44:40.670Z,46.30
2019-02-17T12:47:09.657Z,42.98
2019-02-17T12:49:38.635Z,44.45
2019-02-17T12:52:11.185Z,43.63
2019-02-17T12:54:40.209Z,41.95
2019-02-17T12:57:09.287Z,44.10
2019-02-17T12:59:38.683Z,43.27
2019-02-17T13:02:07.669Z,42.65
2019-02-17T13:04:36.666Z,38.88
2019-02-17T13:07:05.641Z,41.50
2019-02-17T13:09:35.721Z,40.80
2019-02-17T13:12:04.699Z,42.50
2019-02-17T13:14:33.703Z,39.75
2019-02-17T13:17:02.723Z,40.75
2019-02-17T13:19:31.714Z,41.92
2019-02-17T13:22:00.747Z,38.57
2019-02-17T13:24:30.058Z,42.53
2019-02-17T13:26:59.046Z,38.17
2019-02-17T13:29:28.006Z,37.53
2019-02-17T13:31:56.984Z,35.60
2019-02-17T13:34:27.734Z,33.73
2019-02-17T13:36:56.822Z,40.10
2019-02-17T13:39:25.768Z,39.00
2019-02-17T13:41:54.770Z,38.42
2019-02-17T13:44:26.462Z,36.30
2019-02-17T13:46:55.490Z,36.77
2019-02-17T13:49:24.480Z,39.67
2019-02-17T13:51:53.433Z,41.90
2019-02-17T13:54:22.402Z,38.25
2019-02-17T13:56:52.434Z,34.88
2019-02-17T13:59:21.414Z,37.55
2019-02-17T14:01:50.410Z,34.95
2019-02-17T14:04:19.384Z,33.23
2019-02-17T14:06:48.332Z,32.13
2019-02-17T14:09:17.328Z,30.52
2019-02-17T14:11:46.274Z,34.30
2019-02-17T14:14:15.252Z,32.37
2019-02-17T14:16:44.238Z,34.30
2019-02-17T14:19:13.169Z,34.37
2019-02-17T14:21:42.136Z,30.37
2019-02-17T14:24:11.118Z,29.60
2019-02-17T14:26:40.114Z,29.57
2019-02-17T14:29:09.050Z,28.73
2019-02-17T14:31:38.108Z,32.13
2019-02-17T14:34:07.096Z,29.77
2019-02-17T14:36:36.100Z,36.08
2019-02-17T14:39:05.610Z,33.43
2019-02-17T14:41:34.613Z,34.23
2019-02-17T14:44:04.116Z,36.48
2019-02-17T14:46:33.105Z,34.92
2019-02-17T14:49:02.520Z,32.63
2019-02-17T14:51:31.715Z,33.40
2019-02-17T14:54:00.683Z,34.90
2019-02-17T14:56:29.631Z,34.00
2019-02-17T14:58:58.631Z,34.10
2019-02-17T15:01:27.597Z,35.13
2019-02-17T15:03:56.603Z,33.97
2019-02-17T15:06:27.000Z,35.53
2019-02-17T15:09:03.883Z,30.08
2019-02-17T15:11:32.863Z,30.52
2019-02-17T15:14:01.873Z,33.25
2019-02-17T15:16:30.883Z,30.70
2019-02-17T15:19:01.872Z,34.70
2019-02-17T15:21:30.577Z,32.13
2019-02-17T15:23:59.627Z,32.13
2019-02-17T15:26:28.639Z,35.77
2019-02-17T15:28:58.069Z,34.78
2019-02-17T15:31:27.086Z,34.00
2019-02-17T15:33:56.097Z,37.27
2019-02-17T15:36:25.082Z,34.65
2019-02-17T15:39:00.162Z,34.60
2019-02-17T15:41:29.141Z,32.42
2019-02-17T15:44:01.665Z,28.65
2019-02-17T15:46:30.707Z,33.35
2019-02-17T15:48:59.803Z,31.77
2019-02-17T15:51:28.761Z,30.50
2019-02-17T15:53:57.760Z,30.57
2019-02-17T15:56:26.755Z,30.70
2019-02-17T15:58:55.706Z,30.77
2019-02-17T16:01:27.446Z,29.60
2019-02-17T16:03:56.436Z,25.77
2019-02-17T16:06:26.631Z,29.45
2019-02-17T16:08:55.593Z,29.65
2019-02-17T16:11:33.364Z,29.23
2019-02-17T16:14:02.334Z,33.83
2019-02-17T16:16:33.511Z,30.10
2019-02-17T16:19:02.486Z,30.57
2019-02-17T16:21:33.154Z,29.30
2019-02-17T16:24:02.142Z,28.85
2019-02-17T16:26:31.122Z,28.12
2019-02-17T16:29:00.085Z,30.65
2019-02-17T16:31:29.087Z,31.70
2019-02-17T16:33:58.054Z,31.30
2019-02-17T16:36:27.046Z,29.27
2019-02-17T16:38:56.020Z,28.23
2019-02-17T16:41:25.048Z,27.48
2019-02-17T16:43:54.018Z,31.30
2019-02-17T16:46:22.992Z,29.92
2019-02-17T16:48:53.728Z,27.60
2019-02-17T16:51:22.737Z,29.25
2019-02-17T16:53:51.728Z,27.93
2019-02-17T16:56:27.325Z,31.42
2019-02-17T16:58:56.350Z,32.15
2019-02-17T17:01:25.329Z,34.33
2019-02-17T17:03:54.551Z,34.85
2019-02-17T17:06:23.518Z,32.37
2019-02-17T17:08:52.511Z,34.13
2019-02-17T17:11:21.494Z,34.13
2019-02-17T17:13:50.516Z,28.73
2019-02-17T17:16:19.562Z,30.65
2019-02-17T17:18:48.555Z,28.35
2019-02-17T17:21:19.078Z,32.75
2019-02-17T17:23:48.062Z,34.67
2019-02-17T17:26:17.043Z,29.60
2019-02-17T17:28:46.087Z,29.52
2019-02-17T17:31:15.093Z,27.13
2019-02-17T17:33:44.154Z,29.63
2019-02-17T17:36:16.430Z,33.28
2019-02-17T17:38:45.437Z,26.95
2019-02-17T17:41:16.019Z,26.65
2019-02-17T17:43:44.987Z,26.55
2019-02-17T17:46:13.974Z,26.17
2019-02-17T17:48:42.959Z,27.90
2019-02-17T17:51:11.949Z,24.67
2019-02-17T17:53:40.920Z,25.12
2019-02-17T17:56:09.907Z,23.92
2019-02-17T17:58:40.440Z,25.50
2019-02-17T18:01:09.430Z,24.20
2019-02-17T18:03:38.409Z,28.30
2019-02-17T18:06:10.503Z,28.32
2019-02-17T18:08:42.970Z,25.08
2019-02-17T18:11:11.937Z,23.20
2019-02-17T18:13:40.944Z,24.12
2019-02-17T18:16:09.931Z,22.45
2019-02-17T18:18:39.028Z,23.47
2019-02-17T18:21:07.991Z,24.37
2019-02-17T18:23:36.961Z,23.60
2019-02-17T18:26:05.994Z,22.93
2019-02-17T18:28:36.762Z,25.25
2019-02-17T18:31:05.741Z,23.65
2019-02-17T18:33:34.724Z,25.05
2019-02-17T18:36:03.713Z,26.68
2019-02-17T18:38:32.695Z,21.85
2019-02-17T18:41:01.771Z,22.15
2019-02-17T18:43:30.763Z,28.62
2019-02-17T18:46:01.793Z,24.77
2019-02-17T18:48:30.776Z,21.20
2019-02-17T18:50:59.784Z,21.17
2019-02-17T18:55:58.065Z,23.75
2019-02-17T18:58:27.086Z,25.77
2019-02-17T19:00:57.339Z,23.22
2019-02-17T19:03:26.338Z,19.77
2019-02-17T19:05:57.677Z,21.65
2019-02-17T19:08:26.022Z,23.00
2019-02-17T19:10:55.039Z,20.37
2019-02-17T19:13:24.029Z,20.20
2019-02-17T19:15:53.767Z,24.40
2019-02-17T19:18:23.024Z,21.33
2019-02-17T19:20:52.022Z,21.62
2019-02-17T19:23:21.004Z,22.02
2019-02-17T19:25:50.638Z,19.37
2019-02-17T19:28:19.636Z,24.60
2019-02-17T19:30:48.609Z,24.02
2019-02-17T19:33:17.614Z,23.60
2019-02-17T19:35:46.639Z,24.52
2019-02-17T19:40:46.999Z,25.27
2019-02-17T19:43:15.696Z,24.55
2019-02-17T19:48:15.537Z,24.47
2019-02-17T19:50:44.584Z,26.52
2019-02-17T19:53:13.568Z,23.87
2019-02-17T19:55:45.479Z,23.98
2019-02-17T19:58:14.474Z,22.17
2019-02-17T20:00:43.471Z,23.18
2019-02-17T20:03:23.057Z,25.23
2019-02-17T20:05:56.330Z,21.68
2019-02-17T20:08:25.355Z,25.25
2019-02-17T20:10:55.999Z,25.23
2019-02-17T20:13:24.982Z,25.40
2019-02-17T20:15:54.941Z,24.37
2019-02-17T20:18:23.911Z,23.30
2019-02-17T20:20:52.902Z,24.43
2019-02-17T20:23:25.625Z,23.22
2019-02-17T20:25:58.015Z,25.37
2019-02-17T20:28:40.632Z,27.42
2019-02-17T20:30:57.717Z,27.35
2019-02-17T20:33:26.772Z,25.52
2019-02-17T20:36:02.863Z,25.25
2019-02-17T20:38:28.183Z,25.35
2019-02-17T20:40:57.201Z,25.50
2019-02-17T20:43:26.181Z,25.55
2019-02-17T20:45:55.167Z,25.02
2019-02-17T20:48:24.163Z,23.92
2019-02-17T20:50:53.154Z,24.50
2019-02-17T20:53:22.135Z,24.43
2019-02-17T20:55:51.132Z,26.10
2019-02-17T20:58:20.107Z,25.60
2019-02-17T21:00:49.137Z,25.45
2019-02-17T21:03:18.151Z,23.57
2019-02-17T21:05:47.127Z,22.93
2019-02-17T21:08:16.135Z,21.65
2019-02-17T21:10:45.695Z,24.02
2019-02-17T21:13:14.690Z,26.52
2019-02-17T21:15:43.647Z,26.05
2019-02-17T21:18:12.675Z,22.95
2019-02-17T21:20:41.703Z,21.52
2019-02-17T21:23:10.715Z,24.07
2019-02-17T21:25:39.699Z,26.10
2019-02-17T21:28:08.686Z,27.45
2019-02-17T21:30:37.665Z,22.98
2019-02-17T21:33:06.978Z,24.80
2019-02-17T21:35:36.028Z,26.12
2019-02-17T21:38:05.092Z,23.87
2019-02-17T21:40:46.349Z,24.37
2019-02-17T21:43:18.763Z,24.65
2019-02-17T21:45:47.756Z,26.73
2019-02-17T21:48:18.577Z,24.65
2019-02-17T21:50:47.589Z,23.85
2019-02-17T21:53:20.486Z,27.90
2019-02-17T21:55:47.308Z,25.27
2019-02-17T21:58:16.294Z,25.88
2019-02-17T22:00:45.295Z,24.95
2019-02-17T22:03:14.630Z,27.17
2019-02-17T22:05:44.682Z,25.00
2019-02-17T22:08:13.864Z,28.62
2019-02-17T22:10:42.848Z,28.57
2019-02-17T22:13:11.850Z,27.52
2019-02-17T22:15:40.943Z,24.87
2019-02-17T22:18:12.155Z,27.40
2019-02-17T22:20:41.182Z,27.02
2019-02-17T22:23:10.214Z,26.15
2019-02-17T22:25:39.248Z,27.82
2019-02-17T22:28:10.464Z,26.35
2019-02-17T22:30:39.456Z,28.32
2019-02-17T22:33:10.089Z,27.30
2019-02-17T22:35:39.065Z,26.05
2019-02-17T22:38:14.955Z,26.23
2019-02-17T22:40:43.933Z,27.58
2019-02-17T22:43:15.854Z,29.18
2019-02-17T22:45:44.931Z,26.05
2019-02-17T22:48:13.933Z,28.70
2019-02-17T22:50:44.572Z,26.90
2019-02-17T22:53:13.612Z,27.00
2019-02-17T22:55:46.017Z,26.82
2019-02-17T22:58:15.051Z,39.83
2019-02-17T23:00:58.061Z,30.40
2019-02-17T23:03:29.078Z,28.23
2019-02-17T23:05:59.266Z,27.55
2019-02-17T23:08:28.332Z,27.85
2019-02-17T23:10:57.329Z,29.15
2019-02-17T23:13:28.099Z,28.50
2019-02-17T23:15:58.835Z,28.60
2019-02-17T23:18:28.255Z,31.07
2019-02-17T23:20:57.280Z,29.37
2019-02-17T23:23:27.821Z,25.68
2019-02-17T23:26:00.733Z,29.35
2019-02-17T23:28:29.793Z,28.95
2019-02-17T23:30:58.809Z,26.97
2019-02-17T23:33:27.821Z,28.77
2019-02-17T23:35:56.895Z,28.62
2019-02-17T23:38:25.923Z,27.75
2019-02-17T23:40:55.048Z,30.35
2019-02-17T23:43:27.079Z,29.92
2019-02-17T23:45:58.137Z,29.50
2019-02-17T23:48:28.927Z,30.10
2019-02-17T23:50:59.637Z,27.35
2019-02-17T23:53:28.677Z,30.85
2019-02-17T23:56:21.992Z,30.75
2019-02-17T23:58:51.014Z,30.72
